sensor_id;sensor_type;location;lat;lon;timestamp;pressure;altitude;pressure_sealevel;temperature;humidity
63339;BME280;47485;51.378;-1.342;2022-07-29T00:01:36;100427.60;;;15.90;21.62
63339;BME280;47485;51.378;-1.342;2022-07-29T00:04:03;100425.49;;;16.07;21.22
63339;BME280;47485;51.378;-1.342;2022-07-29T00:06:30;100421.55;;;16.94;21.31
63339;BME280;47485;51.378;-1.342;2022-07-29T00:08:56;100421.69;;;16.97;21.06
63339;BME280;47485;51.378;-1.342;2022-07-29T00:11:23;100426.58;;;16.62;21.56
63339;BME280;47485;51.378;-1.342;2022-07-29T00:13:50;100430.75;;;15.65;21.52
63339;BME280;47485;51.378;-1.342;2022-07-29T00:16:17;100426.40;;;16.56;21.40
63339;BME280;47485;51.378;-1.342;2022-07-29T00:18:43;100419.82;;;17.55;21.12
63339;BME280;47485;51.378;-1.342;2022-07-29T00:21:10;100419.33;;;17.21;21.67
63339;BME280;47485;51.378;-1.342;2022-07-29T00:23:37;100419.33;;;17.12;21.44
63339;BME280;47485;51.378;-1.342;2022-07-29T00:26:04;100425.46;;;14.84;22.93
63339;BME280;47485;51.378;-1.342;2022-07-29T00:28:30;100421.04;;;17.02;21.25
63339;BME280;47485;51.378;-1.342;2022-07-29T00:30:57;100418.81;;;17.15;21.50
63339;BME280;47485;51.378;-1.342;2022-07-29T00:33:24;100421.71;;;16.65;21.47
63339;BME280;47485;51.378;-1.342;2022-07-29T00:35:52;100419.03;;;16.79;21.74
63339;BME280;47485;51.378;-1.342;2022-07-29T00:38:19;100419.28;;;16.04;21.28
63339;BME280;47485;51.378;-1.342;2022-07-29T00:40:47;100418.38;;;17.69;21.20
63339;BME280;47485;51.378;-1.342;2022-07-29T00:43:14;100418.16;;;15.52;22.14
63339;BME280;47485;51.378;-1.342;2022-07-29T00:45:41;100415.18;;;15.72;21.42
63339;BME280;47485;51.378;-1.342;2022-07-29T00:48:09;100418.16;;;16.54;21.28
63339;BME280;47485;51.378;-1.342;2022-07-29T00:50:36;100420.78;;;17.26;21.23
63339;BME280;47485;51.378;-1.342;2022-07-29T00:53:05;100416.21;;;18.10;20.73
63339;BME280;47485;51.378;-1.342;2022-07-29T00:55:33;100415.57;;;17.92;20.45
63339;BME280;47485;51.378;-1.342;2022-07-29T00:58:01;100418.25;;;16.99;21.03
63339;BME280;47485;51.378;-1.342;2022-07-29T01:00:28;100416.97;;;17.58;20.40
63339;BME280;47485;51.378;-1.342;2022-07-29T01:02:55;100414.78;;;20.07;20.09
63339;BME280;47485;51.378;-1.342;2022-07-29T01:05:24;100411.26;;;18.27;20.59
63339;BME280;47485;51.378;-1.342;2022-07-29T01:07:54;100410.90;;;18.28;20.92
63339;BME280;47485;51.378;-1.342;2022-07-29T01:10:22;100411.89;;;19.03;20.15
63339;BME280;47485;51.378;-1.342;2022-07-29T01:12:50;100414.17;;;20.83;20.02
63339;BME280;47485;51.378;-1.342;2022-07-29T01:15:17;100416.49;;;19.51;20.23
63339;BME280;47485;51.378;-1.342;2022-07-29T01:17:51;100415.09;;;20.53;20.50
63339;BME280;47485;51.378;-1.342;2022-07-29T01:20:25;100416.17;;;18.24;21.30
63339;BME280;47485;51.378;-1.342;2022-07-29T01:23:08;100416.62;;;16.66;22.36
63339;BME280;47485;51.378;-1.342;2022-07-29T01:26:25;100411.54;;;16.44;22.21
63339;BME280;47485;51.378;-1.342;2022-07-29T01:29:02;100408.67;;;18.23;21.08
63339;BME280;47485;51.378;-1.342;2022-07-29T01:31:36;100414.15;;;20.02;20.31
63339;BME280;47485;51.378;-1.342;2022-07-29T01:34:07;100418.98;;;19.23;20.69
63339;BME280;47485;51.378;-1.342;2022-07-29T01:36:37;100418.57;;;19.69;20.97
63339;BME280;47485;51.378;-1.342;2022-07-29T01:39:10;100419.23;;;19.87;21.34
63339;BME280;47485;51.378;-1.342;2022-07-29T01:44:25;100421.20;;;18.15;21.84
63339;BME280;47485;51.378;-1.342;2022-07-29T01:46:58;100418.54;;;18.28;22.44
63339;BME280;47485;51.378;-1.342;2022-07-29T01:49:31;100419.77;;;16.33;22.69
63339;BME280;47485;51.378;-1.342;2022-07-29T01:52:07;100418.88;;;16.66;22.19
63339;BME280;47485;51.378;-1.342;2022-07-29T01:54:41;100419.36;;;16.73;22.13
63339;BME280;47485;51.378;-1.342;2022-07-29T01:57:12;100422.40;;;16.68;21.91
63339;BME280;47485;51.378;-1.342;2022-07-29T01:59:41;100419.60;;;17.25;21.47
63339;BME280;47485;51.378;-1.342;2022-07-29T02:02:10;100416.30;;;18.85;21.15
63339;BME280;47485;51.378;-1.342;2022-07-29T02:04:40;100418.43;;;17.74;21.47
63339;BME280;47485;51.378;-1.342;2022-07-29T02:07:10;100416.28;;;18.82;20.90
63339;BME280;47485;51.378;-1.342;2022-07-29T02:09:41;100416.99;;;19.97;20.41
63339;BME280;47485;51.378;-1.342;2022-07-29T02:12:09;100419.59;;;20.98;20.17
63339;BME280;47485;51.378;-1.342;2022-07-29T02:14:41;100420.04;;;19.14;20.88
63339;BME280;47485;51.378;-1.342;2022-07-29T02:17:11;100418.85;;;18.64;20.92
63339;BME280;47485;51.378;-1.342;2022-07-29T02:19:39;100420.34;;;18.38;21.74
63339;BME280;47485;51.378;-1.342;2022-07-29T02:22:10;100422.94;;;16.79;22.43
63339;BME280;47485;51.378;-1.342;2022-07-29T02:24:39;100422.19;;;15.54;22.98
63339;BME280;47485;51.378;-1.342;2022-07-29T02:27:07;100419.60;;;17.16;22.27
63339;BME280;47485;51.378;-1.342;2022-07-29T02:29:35;100424.13;;;15.01;23.25
63339;BME280;47485;51.378;-1.342;2022-07-29T02:32:04;100419.19;;;15.85;22.04
63339;BME280;47485;51.378;-1.342;2022-07-29T02:34:32;100415.73;;;17.84;21.09
63339;BME280;47485;51.378;-1.342;2022-07-29T02:36:59;100417.75;;;17.65;21.20
63339;BME280;47485;51.378;-1.342;2022-07-29T02:39:28;100418.26;;;19.27;20.51
63339;BME280;47485;51.378;-1.342;2022-07-29T02:42:01;100421.07;;;19.15;21.27
63339;BME280;47485;51.378;-1.342;2022-07-29T02:44:29;100419.04;;;18.10;21.73
63339;BME280;47485;51.378;-1.342;2022-07-29T02:47:02;100417.38;;;15.86;22.10
63339;BME280;47485;51.378;-1.342;2022-07-29T02:49:35;100413.88;;;18.09;21.71
63339;BME280;47485;51.378;-1.342;2022-07-29T02:52:04;100413.06;;;17.41;21.81
63339;BME280;47485;51.378;-1.342;2022-07-29T02:54:38;100416.21;;;16.02;22.02
63339;BME280;47485;51.378;-1.342;2022-07-29T02:57:11;100411.04;;;16.08;21.45
63339;BME280;47485;51.378;-1.342;2022-07-29T02:59:44;100403.61;;;17.16;21.37
63339;BME280;47485;51.378;-1.342;2022-07-29T03:02:14;100406.70;;;16.53;22.39
63339;BME280;47485;51.378;-1.342;2022-07-29T03:04:43;100404.29;;;17.24;21.36
63339;BME280;47485;51.378;-1.342;2022-07-29T03:07:13;100406.66;;;18.79;20.33
63339;BME280;47485;51.378;-1.342;2022-07-29T03:09:42;100409.20;;;19.03;20.74
63339;BME280;47485;51.378;-1.342;2022-07-29T03:12:09;100411.82;;;19.31;20.28
63339;BME280;47485;51.378;-1.342;2022-07-29T03:14:37;100408.37;;;19.99;20.74
63339;BME280;47485;51.378;-1.342;2022-07-29T03:17:05;100408.82;;;19.77;20.85
63339;BME280;47485;51.378;-1.342;2022-07-29T03:19:32;100407.85;;;18.69;21.18
63339;BME280;47485;51.378;-1.342;2022-07-29T03:22:00;100406.24;;;18.12;21.45
63339;BME280;47485;51.378;-1.342;2022-07-29T03:24:29;100405.69;;;18.07;21.48
63339;BME280;47485;51.378;-1.342;2022-07-29T03:26:57;100408.63;;;17.83;21.64
63339;BME280;47485;51.378;-1.342;2022-07-29T03:29:25;100412.02;;;17.13;21.99
63339;BME280;47485;51.378;-1.342;2022-07-29T03:31:53;100412.06;;;17.06;22.07
63339;BME280;47485;51.378;-1.342;2022-07-29T03:34:22;100413.90;;;17.16;22.45
63339;BME280;47485;51.378;-1.342;2022-07-29T03:36:50;100417.20;;;17.03;22.24
63339;BME280;47485;51.378;-1.342;2022-07-29T03:39:19;100419.15;;;19.41;21.02
63339;BME280;47485;51.378;-1.342;2022-07-29T03:41:49;100421.10;;;19.27;21.37
63339;BME280;47485;51.378;-1.342;2022-07-29T03:44:19;100418.80;;;18.12;21.76
63339;BME280;47485;51.378;-1.342;2022-07-29T03:46:50;100419.90;;;18.89;21.65
63339;BME280;47485;51.378;-1.342;2022-07-29T03:49:18;100427.95;;;15.93;22.55
63339;BME280;47485;51.378;-1.342;2022-07-29T03:51:46;100425.09;;;17.46;22.50
63339;BME280;47485;51.378;-1.342;2022-07-29T03:54:14;100422.08;;;16.06;22.80
63339;BME280;47485;51.378;-1.342;2022-07-29T03:56:43;100418.36;;;15.95;23.23
63339;BME280;47485;51.378;-1.342;2022-07-29T03:59:10;100415.01;;;16.32;22.69
63339;BME280;47485;51.378;-1.342;2022-07-29T04:01:37;100415.30;;;16.30;22.97
63339;BME280;47485;51.378;-1.342;2022-07-29T04:04:05;100417.38;;;15.39;23.18
63339;BME280;47485;51.378;-1.342;2022-07-29T04:06:38;100419.81;;;15.82;22.55
63339;BME280;47485;51.378;-1.342;2022-07-29T04:09:05;100422.73;;;14.17;23.53
63339;BME280;47485;51.378;-1.342;2022-07-29T04:11:31;100426.94;;;15.44;23.10
63339;BME280;47485;51.378;-1.342;2022-07-29T04:13:58;100426.74;;;17.70;21.94
63339;BME280;47485;51.378;-1.342;2022-07-29T04:16:25;100423.84;;;18.70;21.31
63339;BME280;47485;51.378;-1.342;2022-07-29T04:18:53;100427.49;;;16.94;22.11
63339;BME280;47485;51.378;-1.342;2022-07-29T04:21:20;100434.43;;;17.22;22.60
63339;BME280;47485;51.378;-1.342;2022-07-29T04:23:46;100433.22;;;18.66;21.71
63339;BME280;47485;51.378;-1.342;2022-07-29T04:26:13;100435.35;;;18.53;21.73
63339;BME280;47485;51.378;-1.342;2022-07-29T04:28:39;100442.55;;;19.22;22.56
63339;BME280;47485;51.378;-1.342;2022-07-29T04:31:06;100447.39;;;18.80;22.89
63339;BME280;47485;51.378;-1.342;2022-07-29T04:33:33;100444.23;;;16.97;24.18
63339;BME280;47485;51.378;-1.342;2022-07-29T04:36:00;100438.92;;;15.78;24.38
63339;BME280;47485;51.378;-1.342;2022-07-29T04:38:26;100441.36;;;15.85;24.08
63339;BME280;47485;51.378;-1.342;2022-07-29T04:40:54;100445.03;;;15.23;24.72
63339;BME280;47485;51.378;-1.342;2022-07-29T04:43:21;100440.91;;;16.55;24.23
63339;BME280;47485;51.378;-1.342;2022-07-29T04:45:48;100438.71;;;15.17;24.53
63339;BME280;47485;51.378;-1.342;2022-07-29T04:48:15;100437.66;;;16.13;23.91
63339;BME280;47485;51.378;-1.342;2022-07-29T04:50:41;100442.57;;;14.65;24.83
63339;BME280;47485;51.378;-1.342;2022-07-29T04:53:08;100438.41;;;15.56;23.59
63339;BME280;47485;51.378;-1.342;2022-07-29T04:55:35;100432.28;;;15.29;23.76
63339;BME280;47485;51.378;-1.342;2022-07-29T04:58:02;100432.92;;;16.40;23.08
63339;BME280;47485;51.378;-1.342;2022-07-29T05:00:28;100431.31;;;15.54;23.32
63339;BME280;47485;51.378;-1.342;2022-07-29T05:02:55;100433.75;;;15.54;23.64
63339;BME280;47485;51.378;-1.342;2022-07-29T05:05:22;100433.73;;;16.29;23.19
63339;BME280;47485;51.378;-1.342;2022-07-29T05:07:49;100432.96;;;15.99;22.72
63339;BME280;47485;51.378;-1.342;2022-07-29T05:10:15;100433.26;;;16.05;23.05
63339;BME280;47485;51.378;-1.342;2022-07-29T05:12:42;100434.00;;;17.73;22.25
63339;BME280;47485;51.378;-1.342;2022-07-29T05:15:09;100436.75;;;16.57;23.06
63339;BME280;47485;51.378;-1.342;2022-07-29T05:17:37;100440.46;;;16.14;23.43
63339;BME280;47485;51.378;-1.342;2022-07-29T05:20:05;100438.45;;;16.15;23.26
63339;BME280;47485;51.378;-1.342;2022-07-29T05:22:31;100443.28;;;15.19;23.62
63339;BME280;47485;51.378;-1.342;2022-07-29T05:24:58;100443.23;;;16.38;23.20
63339;BME280;47485;51.378;-1.342;2022-07-29T05:27:25;100440.00;;;14.96;23.18
63339;BME280;47485;51.378;-1.342;2022-07-29T05:29:52;100437.86;;;16.48;22.92
63339;BME280;47485;51.378;-1.342;2022-07-29T05:32:19;100439.07;;;17.20;23.25
63339;BME280;47485;51.378;-1.342;2022-07-29T05:34:46;100441.99;;;17.80;22.93
63339;BME280;47485;51.378;-1.342;2022-07-29T05:37:12;100444.66;;;18.33;22.33
63339;BME280;47485;51.378;-1.342;2022-07-29T05:39:39;100453.04;;;17.60;22.83
63339;BME280;47485;51.378;-1.342;2022-07-29T05:42:08;100454.65;;;17.46;22.91
63339;BME280;47485;51.378;-1.342;2022-07-29T05:44:36;100457.29;;;17.37;22.97
63339;BME280;47485;51.378;-1.342;2022-07-29T05:47:03;100456.57;;;18.00;22.66
63339;BME280;47485;51.378;-1.342;2022-07-29T05:49:29;100462.51;;;15.77;22.54
63339;BME280;47485;51.378;-1.342;2022-07-29T05:51:56;100465.00;;;17.66;22.65
63339;BME280;47485;51.378;-1.342;2022-07-29T05:54:23;100467.01;;;17.87;22.55
63339;BME280;47485;51.378;-1.342;2022-07-29T05:56:50;100469.37;;;17.43;22.77
63339;BME280;47485;51.378;-1.342;2022-07-29T05:59:17;100472.05;;;17.60;22.73
63339;BME280;47485;51.378;-1.342;2022-07-29T06:01:44;100468.08;;;18.70;21.51
63339;BME280;47485;51.378;-1.342;2022-07-29T06:04:11;100464.62;;;17.59;22.13
63339;BME280;47485;51.378;-1.342;2022-07-29T06:06:38;100465.01;;;17.92;22.20
63339;BME280;47485;51.378;-1.342;2022-07-29T06:09:04;100463.41;;;18.78;22.08
63339;BME280;47485;51.378;-1.342;2022-07-29T06:11:31;100466.66;;;17.36;22.51
63339;BME280;47485;51.378;-1.342;2022-07-29T06:13:58;100471.65;;;17.47;23.13
63339;BME280;47485;51.378;-1.342;2022-07-29T06:16:24;100468.01;;;17.51;23.27
63339;BME280;47485;51.378;-1.342;2022-07-29T06:18:52;100466.10;;;16.87;22.77
63339;BME280;47485;51.378;-1.342;2022-07-29T06:21:19;100468.71;;;18.20;23.39
63339;BME280;47485;51.378;-1.342;2022-07-29T06:23:46;100467.86;;;18.34;23.32
63339;BME280;47485;51.378;-1.342;2022-07-29T06:26:13;100466.20;;;18.12;22.50
63339;BME280;47485;51.378;-1.342;2022-07-29T06:28:39;100471.51;;;15.90;23.68
63339;BME280;47485;51.378;-1.342;2022-07-29T06:31:06;100472.21;;;16.93;23.44
63339;BME280;47485;51.378;-1.342;2022-07-29T06:33:33;100471.02;;;18.64;22.77
63339;BME280;47485;51.378;-1.342;2022-07-29T06:36:00;100470.05;;;18.68;23.07
63339;BME280;47485;51.378;-1.342;2022-07-29T06:38:27;100472.78;;;17.39;22.90
63339;BME280;47485;51.378;-1.342;2022-07-29T06:40:54;100471.69;;;16.95;23.15
63339;BME280;47485;51.378;-1.342;2022-07-29T06:43:23;100474.13;;;17.45;22.84
63339;BME280;47485;51.378;-1.342;2022-07-29T06:45:50;100476.20;;;17.94;22.96
63339;BME280;47485;51.378;-1.342;2022-07-29T06:48:18;100474.70;;;17.88;22.73
63339;BME280;47485;51.378;-1.342;2022-07-29T06:50:49;100478.85;;;17.36;22.73
63339;BME280;47485;51.378;-1.342;2022-07-29T06:53:16;100486.31;;;18.05;23.06
63339;BME280;47485;51.378;-1.342;2022-07-29T06:55:43;100486.63;;;19.20;21.64
63339;BME280;47485;51.378;-1.342;2022-07-29T06:58:10;100493.48;;;18.78;22.85
63339;BME280;47485;51.378;-1.342;2022-07-29T07:00:37;100494.85;;;16.99;23.37
63339;BME280;47485;51.378;-1.342;2022-07-29T07:03:03;100498.61;;;17.73;23.05
63339;BME280;47485;51.378;-1.342;2022-07-29T07:05:30;100498.03;;;18.72;22.81
63339;BME280;47485;51.378;-1.342;2022-07-29T07:07:57;100505.50;;;18.36;23.69
63339;BME280;47485;51.378;-1.342;2022-07-29T07:10:24;100499.93;;;17.38;23.72
63339;BME280;47485;51.378;-1.342;2022-07-29T07:12:50;100499.33;;;18.48;23.50
63339;BME280;47485;51.378;-1.342;2022-07-29T07:15:17;100500.56;;;18.50;23.01
63339;BME280;47485;51.378;-1.342;2022-07-29T07:17:44;100503.27;;;18.71;22.61
63339;BME280;47485;51.378;-1.342;2022-07-29T07:20:11;100500.93;;;20.68;22.21
63339;BME280;47485;51.378;-1.342;2022-07-29T07:22:37;100499.09;;;18.29;23.48
63339;BME280;47485;51.378;-1.342;2022-07-29T07:25:06;100497.02;;;21.34;21.77
63339;BME280;47485;51.378;-1.342;2022-07-29T07:27:33;100499.97;;;18.90;23.40
63339;BME280;47485;51.378;-1.342;2022-07-29T07:30:00;100500.54;;;17.40;23.44
63339;BME280;47485;51.378;-1.342;2022-07-29T07:32:27;100503.28;;;19.12;23.09
63339;BME280;47485;51.378;-1.342;2022-07-29T07:34:55;100499.67;;;18.48;22.88
63339;BME280;47485;51.378;-1.342;2022-07-29T07:37:21;100496.83;;;18.79;22.04
63339;BME280;47485;51.378;-1.342;2022-07-29T07:39:48;100494.49;;;19.85;22.53
63339;BME280;47485;51.378;-1.342;2022-07-29T07:42:15;100496.26;;;17.79;23.70
63339;BME280;47485;51.378;-1.342;2022-07-29T07:44:41;100498.02;;;17.70;23.55
63339;BME280;47485;51.378;-1.342;2022-07-29T07:47:08;100498.43;;;17.80;23.07
63339;BME280;47485;51.378;-1.342;2022-07-29T07:49:35;100500.55;;;17.64;23.02
63339;BME280;47485;51.378;-1.342;2022-07-29T07:52:02;100497.86;;;17.88;22.89
63339;BME280;47485;51.378;-1.342;2022-07-29T07:54:30;100494.54;;;19.38;22.27
63339;BME280;47485;51.378;-1.342;2022-07-29T07:56:58;100492.39;;;17.96;22.17
63339;BME280;47485;51.378;-1.342;2022-07-29T07:59:24;100497.31;;;20.53;21.22
63339;BME280;47485;51.378;-1.342;2022-07-29T08:01:52;100497.48;;;19.39;21.62
63339;BME280;47485;51.378;-1.342;2022-07-29T08:04:19;100497.70;;;21.01;21.23
63339;BME280;47485;51.378;-1.342;2022-07-29T08:06:46;100496.96;;;17.42;21.91
63339;BME280;47485;51.378;-1.342;2022-07-29T08:09:12;100498.77;;;18.72;21.81
63339;BME280;47485;51.378;-1.342;2022-07-29T08:11:39;100499.02;;;20.25;20.36
63339;BME280;47485;51.378;-1.342;2022-07-29T08:14:06;100497.84;;;17.30;21.18
63339;BME280;47485;51.378;-1.342;2022-07-29T08:16:32;100497.66;;;19.21;20.68
63339;BME280;47485;51.378;-1.342;2022-07-29T08:18:59;100497.84;;;19.81;20.10
63339;BME280;47485;51.378;-1.342;2022-07-29T08:21:26;100498.99;;;19.12;20.23
63339;BME280;47485;51.378;-1.342;2022-07-29T08:23:54;100495.17;;;19.05;20.63
63339;BME280;47485;51.378;-1.342;2022-07-29T08:26:20;100495.36;;;20.27;20.20
63339;BME280;47485;51.378;-1.342;2022-07-29T08:28:53;100492.84;;;18.64;20.16
63339;BME280;47485;51.378;-1.342;2022-07-29T08:31:20;100492.49;;;19.31;20.86
63339;BME280;47485;51.378;-1.342;2022-07-29T08:33:47;100490.36;;;18.81;19.79
63339;BME280;47485;51.378;-1.342;2022-07-29T08:36:13;100492.06;;;17.63;19.99
63339;BME280;47485;51.378;-1.342;2022-07-29T08:38:40;100493.81;;;18.66;19.46
63339;BME280;47485;51.378;-1.342;2022-07-29T08:41:07;100494.58;;;16.45;19.27
63339;BME280;47485;51.378;-1.342;2022-07-29T08:43:33;100491.78;;;19.02;19.66
63339;BME280;47485;51.378;-1.342;2022-07-29T08:46:00;100495.35;;;17.70;20.23
63339;BME280;47485;51.378;-1.342;2022-07-29T08:48:27;100497.34;;;18.74;19.97
63339;BME280;47485;51.378;-1.342;2022-07-29T08:50:55;100497.06;;;19.94;18.43
63339;BME280;47485;51.378;-1.342;2022-07-29T08:53:26;100497.81;;;16.03;20.10
63339;BME280;47485;51.378;-1.342;2022-07-29T08:55:54;100493.91;;;18.17;18.60
63339;BME280;47485;51.378;-1.342;2022-07-29T08:58:21;100495.58;;;18.83;19.88
63339;BME280;47485;51.378;-1.342;2022-07-29T09:00:52;100499.52;;;19.82;18.34
63339;BME280;47485;51.378;-1.342;2022-07-29T09:03:20;100500.65;;;20.27;17.87
63339;BME280;47485;51.378;-1.342;2022-07-29T09:05:48;100501.13;;;17.87;18.96
63339;BME280;47485;51.378;-1.342;2022-07-29T09:08:15;100501.98;;;18.99;18.64
63339;BME280;47485;51.378;-1.342;2022-07-29T09:10:43;100505.16;;;19.81;19.73
63339;BME280;47485;51.378;-1.342;2022-07-29T09:13:10;100506.16;;;21.93;17.09
63339;BME280;47485;51.378;-1.342;2022-07-29T09:15:37;100504.11;;;16.63;20.34
63339;BME280;47485;51.378;-1.342;2022-07-29T09:18:04;100505.36;;;18.95;18.34
63339;BME280;47485;51.378;-1.342;2022-07-29T09:20:30;100499.95;;;17.95;19.27
63339;BME280;47485;51.378;-1.342;2022-07-29T09:23:07;100498.62;;;16.84;19.05
63339;BME280;47485;51.378;-1.342;2022-07-29T09:25:34;100489.44;;;18.71;18.30
63339;BME280;47485;51.378;-1.342;2022-07-29T09:28:06;100485.03;;;18.35;17.30
63339;BME280;47485;51.378;-1.342;2022-07-29T09:30:33;100481.83;;;16.26;17.68
63339;BME280;47485;51.378;-1.342;2022-07-29T09:33:01;100482.83;;;18.20;17.77
63339;BME280;47485;51.378;-1.342;2022-07-29T09:35:30;100486.67;;;17.83;17.41
63339;BME280;47485;51.378;-1.342;2022-07-29T09:37:57;100487.12;;;20.11;16.81
63339;BME280;47485;51.378;-1.342;2022-07-29T09:40:35;100491.95;;;17.46;19.15
63339;BME280;47485;51.378;-1.342;2022-07-29T09:43:09;100486.98;;;19.65;16.77
63339;BME280;47485;51.378;-1.342;2022-07-29T09:45:37;100490.64;;;18.49;18.19
63339;BME280;47485;51.378;-1.342;2022-07-29T09:48:14;100487.97;;;20.81;15.39
63339;BME280;47485;51.378;-1.342;2022-07-29T09:50:42;100490.32;;;20.71;16.17
63339;BME280;47485;51.378;-1.342;2022-07-29T09:53:09;100487.41;;;21.68;15.77
63339;BME280;47485;51.378;-1.342;2022-07-29T09:55:52;100489.58;;;22.38;16.14
63339;BME280;47485;51.378;-1.342;2022-07-29T09:58:21;100483.50;;;21.38;15.53
63339;BME280;47485;51.378;-1.342;2022-07-29T10:00:50;100489.01;;;21.47;16.67
63339;BME280;47485;51.378;-1.342;2022-07-29T10:03:18;100485.04;;;17.01;19.14
63339;BME280;47485;51.378;-1.342;2022-07-29T10:05:46;100486.24;;;17.99;18.30
63339;BME280;47485;51.378;-1.342;2022-07-29T10:08:13;100488.50;;;21.42;16.56
63339;BME280;47485;51.378;-1.342;2022-07-29T10:10:50;100490.50;;;18.98;17.87
63339;BME280;47485;51.378;-1.342;2022-07-29T10:13:17;100486.57;;;21.25;15.73
63339;BME280;47485;51.378;-1.342;2022-07-29T10:15:45;100483.65;;;22.60;14.87
63339;BME280;47485;51.378;-1.342;2022-07-29T10:18:14;100482.70;;;22.12;14.39
63339;BME280;47485;51.378;-1.342;2022-07-29T10:20:41;100478.49;;;23.12;14.33
63339;BME280;47485;51.378;-1.342;2022-07-29T10:23:09;100475.97;;;24.37;13.66
63339;BME280;47485;51.378;-1.342;2022-07-29T10:25:36;100476.68;;;22.57;14.09
63339;BME280;47485;51.378;-1.342;2022-07-29T10:28:04;100474.99;;;21.12;14.54
63339;BME280;47485;51.378;-1.342;2022-07-29T10:30:32;100476.14;;;22.69;13.98
63339;BME280;47485;51.378;-1.342;2022-07-29T10:33:25;100477.22;;;21.44;14.40
63339;BME280;47485;51.378;-1.342;2022-07-29T10:36:06;100474.61;;;21.98;14.18
63339;BME280;47485;51.378;-1.342;2022-07-29T10:38:44;100478.58;;;20.47;15.97
63339;BME280;47485;51.378;-1.342;2022-07-29T10:41:29;100475.17;;;19.02;17.63
63339;BME280;47485;51.378;-1.342;2022-07-29T10:44:03;100478.45;;;19.85;15.91
63339;BME280;47485;51.378;-1.342;2022-07-29T10:46:35;100475.88;;;23.46;14.13
63339;BME280;47485;51.378;-1.342;2022-07-29T10:49:05;100479.17;;;20.59;15.21
63339;BME280;47485;51.378;-1.342;2022-07-29T10:51:55;100480.16;;;24.01;13.63
63339;BME280;47485;51.378;-1.342;2022-07-29T10:54:40;100479.71;;;21.80;14.70
63339;BME280;47485;51.378;-1.342;2022-07-29T10:57:12;100475.88;;;24.07;14.14
63339;BME280;47485;51.378;-1.342;2022-07-29T10:59:40;100480.15;;;20.79;16.43
63339;BME280;47485;51.378;-1.342;2022-07-29T11:02:43;100481.46;;;20.24;16.32
63339;BME280;47485;51.378;-1.342;2022-07-29T11:05:12;100478.24;;;21.11;16.27
63339;BME280;47485;51.378;-1.342;2022-07-29T11:08:16;100478.36;;;24.07;14.01
63339;BME280;47485;51.378;-1.342;2022-07-29T11:10:43;100485.89;;;19.81;16.38
63339;BME280;47485;51.378;-1.342;2022-07-29T11:13:10;100483.19;;;18.12;17.46
63339;BME280;47485;51.378;-1.342;2022-07-29T11:15:52;100485.65;;;20.31;16.93
63339;BME280;47485;51.378;-1.342;2022-07-29T11:18:20;100484.17;;;21.84;14.91
63339;BME280;47485;51.378;-1.342;2022-07-29T11:20:49;100490.88;;;19.72;15.82
63339;BME280;47485;51.378;-1.342;2022-07-29T11:23:19;100490.99;;;20.25;15.41
63339;BME280;47485;51.378;-1.342;2022-07-29T11:26:13;100489.68;;;18.69;18.55
63339;BME280;47485;51.378;-1.342;2022-07-29T11:28:49;100490.64;;;20.43;16.77
63339;BME280;47485;51.378;-1.342;2022-07-29T11:31:34;100485.06;;;24.54;13.70
63339;BME280;47485;51.378;-1.342;2022-07-29T11:34:19;100487.04;;;22.58;15.39
63339;BME280;47485;51.378;-1.342;2022-07-29T11:38:23;100483.02;;;22.88;14.66
63339;BME280;47485;51.378;-1.342;2022-07-29T11:41:19;100478.93;;;23.54;13.72
63339;BME280;47485;51.378;-1.342;2022-07-29T11:43:47;100478.89;;;23.21;14.89
63339;BME280;47485;51.378;-1.342;2022-07-29T11:46:16;100474.00;;;25.35;12.74
63339;BME280;47485;51.378;-1.342;2022-07-29T11:48:44;100474.03;;;21.23;15.87
63339;BME280;47485;51.378;-1.342;2022-07-29T11:51:11;100474.01;;;22.32;14.20
63339;BME280;47485;51.378;-1.342;2022-07-29T11:53:39;100466.63;;;24.93;14.08
63339;BME280;47485;51.378;-1.342;2022-07-29T11:56:08;100472.31;;;19.88;16.53
63339;BME280;47485;51.378;-1.342;2022-07-29T11:58:36;100467.17;;;22.73;15.38
63339;BME280;47485;51.378;-1.342;2022-07-29T12:01:03;100467.99;;;22.39;15.17
63339;BME280;47485;51.378;-1.342;2022-07-29T12:03:30;100459.81;;;24.61;14.13
63339;BME280;47485;51.378;-1.342;2022-07-29T12:05:56;100459.10;;;21.63;14.94
63339;BME280;47485;51.378;-1.342;2022-07-29T12:08:23;100455.22;;;23.37;14.53
63339;BME280;47485;51.378;-1.342;2022-07-29T12:10:50;100457.75;;;23.52;14.01
63339;BME280;47485;51.378;-1.342;2022-07-29T12:13:19;100453.31;;;21.30;14.33
63339;BME280;47485;51.378;-1.342;2022-07-29T12:15:53;100454.12;;;23.04;13.97
63339;BME280;47485;51.378;-1.342;2022-07-29T12:18:20;100448.18;;;23.43;13.77
63339;BME280;47485;51.378;-1.342;2022-07-29T12:20:48;100440.98;;;24.45;13.77
63339;BME280;47485;51.378;-1.342;2022-07-29T12:23:15;100446.15;;;19.07;16.42
63339;BME280;47485;51.378;-1.342;2022-07-29T12:25:43;100442.34;;;20.86;15.46
63339;BME280;47485;51.378;-1.342;2022-07-29T12:28:12;100437.15;;;16.07;17.77
63339;BME280;47485;51.378;-1.342;2022-07-29T12:30:41;100429.99;;;21.28;14.26
63339;BME280;47485;51.378;-1.342;2022-07-29T12:33:12;100429.82;;;22.90;13.84
63339;BME280;47485;51.378;-1.342;2022-07-29T12:35:39;100426.11;;;25.44;12.48
63339;BME280;47485;51.378;-1.342;2022-07-29T12:38:09;100430.48;;;22.52;13.10
63339;BME280;47485;51.378;-1.342;2022-07-29T12:40:37;100431.72;;;18.92;16.34
63339;BME280;47485;51.378;-1.342;2022-07-29T12:43:07;100431.17;;;23.20;13.53
63339;BME280;47485;51.378;-1.342;2022-07-29T12:45:34;100432.12;;;23.43;13.40
63339;BME280;47485;51.378;-1.342;2022-07-29T12:48:03;100430.21;;;26.28;12.85
63339;BME280;47485;51.378;-1.342;2022-07-29T12:50:31;100426.69;;;23.95;14.19
63339;BME280;47485;51.378;-1.342;2022-07-29T12:53:09;100421.93;;;23.15;14.50
63339;BME280;47485;51.378;-1.342;2022-07-29T12:55:40;100424.24;;;20.55;15.32